Time;durP1;ratioP1;P1;durP2;ratioP2;P2;SDS_P1;SDS_P2;PMS_P1;PMS_P2;Temp;Humidity;BMP_temperature;BMP_pressure;BME280_temperature;BME280_humidity;BME280_pressure;Samples;Min_cycle;Max_cycle;Signal;HPM_P1;HPM_P2
2023/09/27 00:00:48;;;;;;;;;;;21.70;1.00;;;;;;4937962;29;19937;-56
2023/09/27 00:03:15;;;;;;;;;;;21.70;1.00;;;;;;4938186;29;20389;-50
2023/09/27 00:05:41;;;;;;;;;;;21.70;1.00;;;;;;4938142;29;20365;-54
2023/09/27 00:08:10;;;;;;;;;;;21.70;1.00;;;;;;4938000;29;19966;-54
2023/09/27 00:10:37;;;;;;;;;;;21.70;1.00;;;;;;4920652;29;19927;-53
2023/09/27 00:13:04;;;;;;;;;;;21.60;1.00;;;;;;4938141;29;19966;-57
2023/09/27 00:15:31;;;;;;;;;;;21.70;1.00;;;;;;4937977;29;20018;-54
2023/09/27 00:17:58;;;;;;;;;;;21.60;1.00;;;;;;4944736;29;19926;-52
2023/09/27 00:20:25;;;;;;;;;;;21.60;1.00;;;;;;4956660;29;20305;-53
2023/09/27 00:22:54;;;;;;;;;;;21.60;1.00;;;;;;4957123;29;19926;-57
2023/09/27 00:25:21;;;;;;;;;;;21.60;1.00;;;;;;4957003;29;19974;-51
2023/09/27 00:27:48;;;;;;;;;;;21.60;1.00;;;;;;4957001;29;19933;-51
2023/09/27 00:30:16;;;;;;;;;;;21.60;1.00;;;;;;4956433;29;20013;-55
2023/09/27 00:32:46;;;;;;;;;;;21.60;1.00;;;;;;4956814;29;19931;-56
2023/09/27 00:35:21;;;;;;;;;;;21.60;1.00;;;;;;4939689;29;19934;-51
2023/09/27 00:37:48;;;;;;;;;;;21.60;1.00;;;;;;4939496;29;19927;-52
2023/09/27 00:40:18;;;;;;;;;;;21.60;1.00;;;;;;4956370;29;20399;-55
2023/09/27 00:42:47;;;;;;;;;;;21.60;1.00;;;;;;4939548;29;20017;-53
2023/09/27 00:45:15;;;;;;;;;;;21.60;1.00;;;;;;4939251;29;19930;-54
2023/09/27 00:47:41;;;;;;;;;;;21.60;1.00;;;;;;4956612;29;19974;-52
2023/09/27 00:50:09;;;;;;;;;;;21.60;1.00;;;;;;4938775;29;19957;-56
2023/09/27 00:52:37;;;;;;;;;;;21.60;1.00;;;;;;4936031;29;19974;-57
2023/09/27 00:55:04;;;;;;;;;;;21.60;1.00;;;;;;4920140;29;19931;-54
2023/09/27 00:57:31;;;;;;;;;;;21.60;1.00;;;;;;4937372;29;19935;-52
2023/09/27 00:59:58;;;;;;;;;;;21.60;1.00;;;;;;4919746;29;19986;-52
2023/09/27 01:02:25;;;;;;;;;;;21.60;1.00;;;;;;4920046;29;20373;-51
2023/09/27 01:04:53;;;;;;;;;;;21.50;1.00;;;;;;4937161;29;19934;-53
2023/09/27 01:07:20;;;;;;;;;;;21.60;1.00;;;;;;4920004;29;20025;-53
2023/09/27 01:09:47;;;;;;;;;;;21.60;1.00;;;;;;4919561;29;19949;-55
2023/09/27 01:12:13;;;;;;;;;;;21.50;1.00;;;;;;4936928;29;19966;-52
2023/09/27 01:14:41;;;;;;;;;;;21.50;1.00;;;;;;4937078;29;19927;-54
2023/09/27 01:17:09;;;;;;;;;;;21.50;1.00;;;;;;4919780;29;20428;-53
2023/09/27 01:19:37;;;;;;;;;;;21.50;1.00;;;;;;4936377;29;19927;-53
2023/09/27 01:22:04;;;;;;;;;;;21.50;1.00;;;;;;4936858;29;20357;-53
2023/09/27 01:24:34;;;;;;;;;;;21.50;1.00;;;;;;4919756;29;19934;-53
2023/09/27 01:27:02;;;;;;;;;;;21.50;1.00;;;;;;4919479;29;20254;-55
2023/09/27 01:29:30;;;;;;;;;;;21.60;1.00;;;;;;4945353;29;20304;-53
2023/09/27 01:31:57;;;;;;;;;;;21.50;1.00;;;;;;4938498;29;19926;-53
2023/09/27 01:34:23;;;;;;;;;;;21.50;1.00;;;;;;4938276;29;19933;-51
2023/09/27 01:36:51;;;;;;;;;;;21.50;1.00;;;;;;4938363;29;20492;-53
2023/09/27 01:39:18;;;;;;;;;;;21.50;1.00;;;;;;4938005;29;19927;-51
2023/09/27 01:41:45;;;;;;;;;;;21.50;1.00;;;;;;4926367;29;19927;-55
2023/09/27 01:44:12;;;;;;;;;;;21.50;1.00;;;;;;4919331;29;19966;-52
2023/09/27 01:46:38;;;;;;;;;;;21.50;1.00;;;;;;4936290;29;19927;-57
2023/09/27 01:49:05;;;;;;;;;;;21.50;1.00;;;;;;4918770;29;20780;-52
2023/09/27 01:51:32;;;;;;;;;;;21.50;1.00;;;;;;4919192;29;19970;-53
2023/09/27 01:53:58;;;;;;;;;;;21.50;1.00;;;;;;4919208;29;20444;-50
2023/09/27 01:56:25;;;;;;;;;;;21.50;1.00;;;;;;4953008;29;19934;-55
2023/09/27 01:58:54;;;;;;;;;;;21.50;1.00;;;;;;4937346;29;20424;-54
2023/09/27 02:01:21;;;;;;;;;;;21.50;1.00;;;;;;4929475;29;19927;-52
2023/09/27 02:03:48;;;;;;;;;;;21.50;1.00;;;;;;4918905;29;20544;-53
2023/09/27 02:06:15;;;;;;;;;;;21.50;1.00;;;;;;4918738;29;19927;-52
2023/09/27 02:08:42;;;;;;;;;;;21.50;1.00;;;;;;4918432;29;20338;-53
2023/09/27 02:11:12;;;;;;;;;;;21.50;1.00;;;;;;4918421;29;19934;-54
2023/09/27 02:13:38;;;;;;;;;;;21.50;1.00;;;;;;4935902;29;19967;-53
2023/09/27 02:16:05;;;;;;;;;;;21.40;1.00;;;;;;4918799;29;19953;-51
2023/09/27 02:18:32;;;;;;;;;;;21.50;1.00;;;;;;4918452;29;20042;-55
2023/09/27 02:20:59;;;;;;;;;;;21.40;1.00;;;;;;4918454;29;20586;-54
2023/09/27 02:23:27;;;;;;;;;;;21.40;1.00;;;;;;4918744;29;19931;-56
2023/09/27 02:25:57;;;;;;;;;;;21.50;1.00;;;;;;4918735;29;19958;-53
2023/09/27 02:28:24;;;;;;;;;;;21.40;1.00;;;;;;4918474;29;19974;-49
2023/09/27 02:30:51;;;;;;;;;;;21.50;1.00;;;;;;4902508;29;19933;-52
2023/09/27 02:33:18;;;;;;;;;;;21.40;1.00;;;;;;4918815;29;20340;-54
2023/09/27 02:35:45;;;;;;;;;;;21.40;1.00;;;;;;4918440;29;20490;-51
2023/09/27 02:38:12;;;;;;;;;;;21.50;1.00;;;;;;4918667;29;20288;-55
2023/09/27 02:40:40;;;;;;;;;;;21.40;1.00;;;;;;4918008;29;19927;-56
2023/09/27 02:43:07;;;;;;;;;;;21.40;1.00;;;;;;4935492;29;19966;-52
2023/09/27 02:45:36;;;;;;;;;;;21.40;1.00;;;;;;4918371;29;19933;-57
2023/09/27 02:48:03;;;;;;;;;;;21.40;1.00;;;;;;4918287;29;19927;-55
2023/09/27 02:50:30;;;;;;;;;;;21.40;1.00;;;;;;4918036;29;19966;-54
2023/09/27 02:52:57;;;;;;;;;;;21.40;1.00;;;;;;4918332;29;19926;-57
2023/09/27 02:55:25;;;;;;;;;;;21.40;1.00;;;;;;4935537;29;19966;-54
2023/09/27 02:57:52;;;;;;;;;;;21.40;1.00;;;;;;4918483;29;19954;-56
2023/09/27 03:00:22;;;;;;;;;;;21.40;1.00;;;;;;4935000;29;19927;-57
2023/09/27 03:02:48;;;;;;;;;;;21.40;1.00;;;;;;4918195;29;19931;-55
2023/09/27 03:05:15;;;;;;;;;;;21.40;1.00;;;;;;4918200;29;20021;-55
2023/09/27 03:07:44;;;;;;;;;;;21.40;1.00;;;;;;4935178;29;19981;-55
2023/09/27 03:10:12;;;;;;;;;;;21.40;1.00;;;;;;4934907;29;20373;-51
2023/09/27 03:12:39;;;;;;;;;;;21.40;1.00;;;;;;4935317;29;20404;-51
2023/09/27 03:15:10;;;;;;;;;;;21.40;1.00;;;;;;4918203;29;19946;-53
2023/09/27 03:17:40;;;;;;;;;;;21.40;1.00;;;;;;4917954;29;19993;-52
2023/09/27 03:20:15;;;;;;;;;;;21.40;1.00;;;;;;4917771;29;19931;-55
2023/09/27 03:22:43;;;;;;;;;;;21.40;1.00;;;;;;4935683;29;19933;-55
2023/09/27 03:25:10;;;;;;;;;;;21.40;1.00;;;;;;4921861;29;19931;-55
2023/09/27 03:27:37;;;;;;;;;;;21.40;1.00;;;;;;4923535;29;19935;-53
2023/09/27 03:30:05;;;;;;;;;;;21.40;1.00;;;;;;4940404;29;19942;-56
2023/09/27 03:32:36;;;;;;;;;;;21.40;1.00;;;;;;4940790;29;20061;-52
2023/09/27 03:35:04;;;;;;;;;;;21.30;1.00;;;;;;4937192;29;19934;-51
2023/09/27 03:37:31;;;;;;;;;;;21.30;1.00;;;;;;4921719;29;19970;-54
2023/09/27 03:39:58;;;;;;;;;;;21.30;1.00;;;;;;4938297;29;19927;-52
2023/09/27 03:42:26;;;;;;;;;;;21.40;1.00;;;;;;4921508;29;19927;-56
2023/09/27 03:44:54;;;;;;;;;;;21.30;1.00;;;;;;4921475;29;20334;-54
2023/09/27 03:47:22;;;;;;;;;;;21.40;1.00;;;;;;4921455;29;20296;-52
2023/09/27 03:49:49;;;;;;;;;;;21.40;1.00;;;;;;4938032;29;20400;-54
2023/09/27 03:52:16;;;;;;;;;;;21.40;1.00;;;;;;4945109;29;19931;-54
2023/09/27 03:54:43;;;;;;;;;;;21.30;1.00;;;;;;4940359;29;19935;-54
2023/09/27 03:57:09;;;;;;;;;;;21.30;1.00;;;;;;4957591;29;19926;-57
2023/09/27 03:59:36;;;;;;;;;;;21.30;1.00;;;;;;4957109;29;19931;-54
2023/09/27 04:02:03;;;;;;;;;;;21.30;1.00;;;;;;4940030;29;19953;-56
2023/09/27 04:04:30;;;;;;;;;;;21.30;1.00;;;;;;4940086;29;20273;-56
2023/09/27 04:06:57;;;;;;;;;;;21.30;1.00;;;;;;4940162;29;20053;-56
2023/09/27 04:09:24;;;;;;;;;;;21.30;1.00;;;;;;4924744;29;20945;-55
2023/09/27 04:11:51;;;;;;;;;;;21.30;1.00;;;;;;4947912;29;19949;-52
2023/09/27 04:14:17;;;;;;;;;;;21.30;1.00;;;;;;4945336;29;20017;-55
2023/09/27 04:16:44;;;;;;;;;;;21.30;1.00;;;;;;4937922;29;19933;-57
2023/09/27 04:19:11;;;;;;;;;;;21.30;1.00;;;;;;4949671;29;19926;-55
2023/09/27 04:21:38;;;;;;;;;;;21.30;1.00;;;;;;4946991;29;19926;-52
2023/09/27 04:24:05;;;;;;;;;;;21.30;1.00;;;;;;4939467;29;19926;-53
2023/09/27 04:26:31;;;;;;;;;;;21.30;1.00;;;;;;4944416;29;19926;-54
2023/09/27 04:29:00;;;;;;;;;;;21.30;1.00;;;;;;4942143;29;20356;-55
2023/09/27 04:31:27;;;;;;;;;;;21.30;1.00;;;;;;4944911;29;20356;-53
2023/09/27 04:33:54;;;;;;;;;;;21.30;1.00;;;;;;4956020;28;20022;-51
2023/09/27 04:36:21;;;;;;;;;;;21.30;1.00;;;;;;4956684;29;19930;-54
2023/09/27 04:38:49;;;;;;;;;;;21.20;1.00;;;;;;4956106;29;19926;-51
2023/09/27 04:41:17;;;;;;;;;;;21.30;1.00;;;;;;4956295;29;19926;-52
2023/09/27 04:43:44;;;;;;;;;;;21.20;1.00;;;;;;4956366;29;20017;-53
2023/09/27 04:46:12;;;;;;;;;;;21.20;1.00;;;;;;4955871;29;20316;-50
2023/09/27 04:48:39;;;;;;;;;;;21.20;1.00;;;;;;4939010;29;19926;-52
2023/09/27 04:51:06;;;;;;;;;;;21.20;1.00;;;;;;4937356;29;19973;-50
2023/09/27 04:53:36;;;;;;;;;;;21.20;1.00;;;;;;4938896;29;19935;-54
2023/09/27 04:56:06;;;;;;;;;;;21.20;1.00;;;;;;4937285;29;20399;-54
2023/09/27 04:58:33;;;;;;;;;;;21.20;1.00;;;;;;4953091;29;20265;-52
2023/09/27 05:01:04;;;;;;;;;;;21.20;1.00;;;;;;4956162;29;19927;-51
2023/09/27 05:03:31;;;;;;;;;;;21.20;1.00;;;;;;4956063;29;19927;-53
2023/09/27 05:05:58;;;;;;;;;;;21.20;1.00;;;;;;4955952;29;20408;-49
2023/09/27 05:08:26;;;;;;;;;;;21.20;1.00;;;;;;4947922;29;20007;-50
2023/09/27 05:10:53;;;;;;;;;;;21.20;1.00;;;;;;4936416;29;19927;-55
2023/09/27 05:13:21;;;;;;;;;;;21.20;1.00;;;;;;4936787;29;19934;-54
2023/09/27 05:15:49;;;;;;;;;;;21.20;1.00;;;;;;4936526;29;19927;-55
2023/09/27 05:18:15;;;;;;;;;;;21.20;1.00;;;;;;4936686;29;19926;-52
2023/09/27 05:20:43;;;;;;;;;;;21.20;1.00;;;;;;4936185;29;19937;-53
2023/09/27 05:23:11;;;;;;;;;;;21.20;1.00;;;;;;4936513;29;19927;-50
2023/09/27 05:25:38;;;;;;;;;;;21.20;1.00;;;;;;4936401;29;19982;-54
2023/09/27 05:28:05;;;;;;;;;;;21.20;1.00;;;;;;4936329;29;20395;-50
2023/09/27 05:30:31;;;;;;;;;;;21.20;1.00;;;;;;4935184;29;19927;-51
2023/09/27 05:32:58;;;;;;;;;;;21.20;1.00;;;;;;4935146;29;19938;-50
2023/09/27 05:35:25;;;;;;;;;;;21.20;1.00;;;;;;4935340;29;19926;-51
2023/09/27 05:37:52;;;;;;;;;;;21.10;1.00;;;;;;4936214;29;20202;-50
2023/09/27 05:40:19;;;;;;;;;;;21.10;1.00;;;;;;4935517;29;20033;-51
2023/09/27 05:42:46;;;;;;;;;;;21.20;1.00;;;;;;4936018;29;19982;-50
2023/09/27 05:45:13;;;;;;;;;;;21.10;1.00;;;;;;4935407;29;19982;-50
2023/09/27 05:47:40;;;;;;;;;;;21.20;1.00;;;;;;4935818;29;20368;-50
2023/09/27 05:50:08;;;;;;;;;;;21.10;1.00;;;;;;4935455;29;20301;-52
2023/09/27 05:52:35;;;;;;;;;;;21.20;1.00;;;;;;4935953;29;19927;-51
2023/09/27 05:55:05;;;;;;;;;;;21.10;1.00;;;;;;4935760;29;19975;-50
2023/09/27 05:57:33;;;;;;;;;;;21.20;1.00;;;;;;4936123;29;20350;-52
2023/09/27 06:00:00;;;;;;;;;;;21.10;1.00;;;;;;4935330;29;19930;-50
2023/09/27 06:02:36;;;;;;;;;;;21.10;1.00;;;;;;4935837;29;20336;-52
2023/09/27 06:05:04;;;;;;;;;;;21.10;1.00;;;;;;4935804;29;19973;-51
2023/09/27 06:07:31;;;;;;;;;;;21.10;1.00;;;;;;4935489;29;19930;-51
2023/09/27 06:09:58;;;;;;;;;;;21.10;1.00;;;;;;4935094;29;19933;-53
2023/09/27 06:12:25;;;;;;;;;;;21.10;1.00;;;;;;4935632;29;20030;-51
2023/09/27 06:14:51;;;;;;;;;;;21.10;1.00;;;;;;4935999;29;19949;-50
2023/09/27 06:17:18;;;;;;;;;;;21.10;1.00;;;;;;4948700;29;20426;-50
2023/09/27 06:19:45;;;;;;;;;;;21.10;1.00;;;;;;4954271;29;19981;-51
2023/09/27 06:22:13;;;;;;;;;;;21.20;1.00;;;;;;4954577;29;20026;-50
2023/09/27 06:24:40;;;;;;;;;;;21.10;1.00;;;;;;4954490;29;19927;-51
2023/09/27 06:27:08;;;;;;;;;;;21.10;1.00;;;;;;4954768;29;19930;-54
2023/09/27 06:29:34;;;;;;;;;;;21.10;1.00;;;;;;4954173;29;20384;-52
2023/09/27 06:32:02;;;;;;;;;;;21.10;1.00;;;;;;4954390;29;19964;-52
2023/09/27 06:34:29;;;;;;;;;;;21.10;1.00;;;;;;4954317;29;20380;-53
2023/09/27 06:36:56;;;;;;;;;;;21.10;1.00;;;;;;4954374;29;19981;-50
2023/09/27 06:39:26;;;;;;;;;;;21.10;1.00;;;;;;4954344;29;20011;-54
2023/09/27 06:41:52;;;;;;;;;;;21.10;1.00;;;;;;4954293;29;20021;-51
2023/09/27 06:44:19;;;;;;;;;;;21.10;1.00;;;;;;4954301;29;20009;-51
2023/09/27 06:46:47;;;;;;;;;;;21.10;1.00;;;;;;4954229;29;20411;-52
2023/09/27 06:49:16;;;;;;;;;;;21.10;1.00;;;;;;4953772;29;19927;-54
2023/09/27 06:51:44;;;;;;;;;;;21.10;1.00;;;;;;4954264;29;19934;-53
2023/09/27 06:54:10;;;;;;;;;;;21.10;1.00;;;;;;4954091;29;19927;-50
2023/09/27 06:56:37;;;;;;;;;;;21.10;1.00;;;;;;4955195;28;19933;-52
2023/09/27 06:59:05;;;;;;;;;;;21.20;1.00;;;;;;4960058;28;19927;-54
2023/09/27 07:01:32;;;;;;;;;;;21.10;1.00;;;;;;4960656;28;19939;-52
2023/09/27 07:03:59;;;;;;;;;;;21.10;1.00;;;;;;4960474;29;19926;-51
2023/09/27 07:06:26;;;;;;;;;;;21.10;1.00;;;;;;4960415;29;19926;-53
2023/09/27 07:08:57;;;;;;;;;;;21.10;1.00;;;;;;4959728;29;19954;-51
2023/09/27 07:11:24;;;;;;;;;;;21.10;1.00;;;;;;4960537;28;19981;-50
2023/09/27 07:13:52;;;;;;;;;;;21.10;1.00;;;;;;4960512;28;19926;-50
2023/09/27 07:16:20;;;;;;;;;;;21.10;1.00;;;;;;4960384;28;19930;-50
2023/09/27 07:18:50;;;;;;;;;;;21.20;1.00;;;;;;4960002;29;20327;-52
2023/09/27 07:21:24;;;;;;;;;;;21.20;1.00;;;;;;4960366;28;19926;-51
2023/09/27 07:23:52;;;;;;;;;;;21.10;1.00;;;;;;4960241;28;20304;-51
2023/09/27 07:26:19;;;;;;;;;;;21.20;1.00;;;;;;4960386;28;19976;-52
2023/09/27 07:28:46;;;;;;;;;;;21.20;1.00;;;;;;4959731;28;19938;-52
2023/09/27 07:31:16;;;;;;;;;;;21.10;1.00;;;;;;4960300;29;20404;-51
2023/09/27 07:33:44;;;;;;;;;;;21.20;1.00;;;;;;4960415;28;19926;-52
2023/09/27 07:36:12;;;;;;;;;;;21.10;1.00;;;;;;4960391;28;19927;-51
2023/09/27 07:38:39;;;;;;;;;;;21.10;1.00;;;;;;4959772;29;19976;-52
2023/09/27 07:41:08;;;;;;;;;;;21.20;1.00;;;;;;4960135;28;19933;-50
2023/09/27 07:43:36;;;;;;;;;;;21.10;1.00;;;;;;4960249;28;20289;-49
2023/09/27 07:46:06;;;;;;;;;;;21.10;1.00;;;;;;4957417;29;19926;-51
2023/09/27 07:48:38;;;;;;;;;;;21.20;1.00;;;;;;4955087;28;19926;-51
2023/09/27 07:51:17;;;;;;;;;;;21.20;1.00;;;;;;4959987;29;20009;-52
2023/09/27 07:53:44;;;;;;;;;;;21.10;1.00;;;;;;4960118;28;19949;-50
2023/09/27 07:56:17;;;;;;;;;;;21.20;1.00;;;;;;4960196;29;20344;-51
2023/09/27 07:58:44;;;;;;;;;;;21.20;1.00;;;;;;4959836;28;19932;-51
2023/09/27 08:01:12;;;;;;;;;;;21.20;1.00;;;;;;4960003;28;19926;-51
2023/09/27 08:03:39;;;;;;;;;;;21.20;1.00;;;;;;4959777;29;19956;-54
2023/09/27 08:06:07;;;;;;;;;;;21.20;1.00;;;;;;4959885;29;20460;-51
2023/09/27 08:08:34;;;;;;;;;;;21.20;1.00;;;;;;4958095;28;19933;-54
2023/09/27 08:11:01;;;;;;;;;;;21.20;1.00;;;;;;4956597;29;19933;-55
2023/09/27 08:13:30;;;;;;;;;;;21.20;1.00;;;;;;4956997;29;20403;-52
2023/09/27 08:15:56;;;;;;;;;;;21.20;1.00;;;;;;4956785;29;20013;-50
2023/09/27 08:18:25;;;;;;;;;;;21.20;1.00;;;;;;4956784;29;19961;-51
2023/09/27 08:20:54;;;;;;;;;;;21.20;1.00;;;;;;4956407;29;19982;-51
2023/09/27 08:23:21;;;;;;;;;;;21.20;1.00;;;;;;4956821;29;19927;-52
2023/09/27 08:25:48;;;;;;;;;;;21.20;1.00;;;;;;4957303;29;19926;-53
2023/09/27 08:28:16;;;;;;;;;;;21.20;1.00;;;;;;4956393;29;19958;-53
2023/09/27 08:30:43;;;;;;;;;;;21.20;1.00;;;;;;4956434;29;20297;-52
2023/09/27 08:33:10;;;;;;;;;;;21.20;1.00;;;;;;4956565;29;20028;-51
2023/09/27 08:35:37;;;;;;;;;;;21.20;1.00;;;;;;4956437;29;19933;-51
2023/09/27 08:38:04;;;;;;;;;;;21.20;1.00;;;;;;4956449;29;19927;-52
2023/09/27 08:40:30;;;;;;;;;;;21.20;1.00;;;;;;4956242;29;20380;-51
2023/09/27 08:42:58;;;;;;;;;;;21.20;1.00;;;;;;4956405;29;19927;-51
2023/09/27 08:45:26;;;;;;;;;;;21.20;1.00;;;;;;4956341;29;20409;-51
2023/09/27 08:47:53;;;;;;;;;;;21.20;1.00;;;;;;4956259;29;20300;-52
2023/09/27 08:50:21;;;;;;;;;;;21.20;1.00;;;;;;4955732;29;19933;-51
2023/09/27 08:52:48;;;;;;;;;;;21.20;1.00;;;;;;4956141;29;19927;-56
2023/09/27 08:55:16;;;;;;;;;;;21.20;1.00;;;;;;4953379;29;19926;-51
2023/09/27 08:57:46;;;;;;;;;;;21.20;1.00;;;;;;4937048;29;19973;-55
2023/09/27 09:00:15;;;;;;;;;;;21.20;1.00;;;;;;4936520;29;20419;-50
2023/09/27 09:02:43;;;;;;;;;;;21.20;1.00;;;;;;4936981;29;19927;-54
2023/09/27 09:05:12;;;;;;;;;;;21.20;1.00;;;;;;4936619;29;19931;-51
2023/09/27 09:07:42;;;;;;;;;;;21.20;1.00;;;;;;4936936;29;20025;-52
2023/09/27 09:10:19;;;;;;;;;;;21.20;1.00;;;;;;4936226;29;19927;-50
2023/09/27 09:12:47;;;;;;;;;;;21.20;1.00;;;;;;4936728;29;19950;-51
2023/09/27 09:15:27;;;;;;;;;;;21.20;1.00;;;;;;4936543;29;20262;-50
2023/09/27 09:17:57;;;;;;;;;;;21.20;1.00;;;;;;4936637;29;20009;-51
2023/09/27 09:20:32;;;;;;;;;;;21.20;1.00;;;;;;4947314;28;20277;-54
2023/09/27 09:23:07;;;;;;;;;;;21.20;1.00;;;;;;4955453;29;20216;-50
2023/09/27 09:25:41;;;;;;;;;;;21.20;1.00;;;;;;4955694;29;19926;-54
2023/09/27 09:28:08;;;;;;;;;;;21.20;1.00;;;;;;4958443;29;19926;-57
2023/09/27 09:30:35;;;;;;;;;;;21.20;1.00;;;;;;4960059;29;20025;-57
2023/09/27 09:33:03;;;;;;;;;;;21.20;1.00;;;;;;4958134;29;19926;-51
2023/09/27 09:35:31;;;;;;;;;;;21.20;1.00;;;;;;4938460;29;19936;-50
2023/09/27 09:37:59;;;;;;;;;;;21.20;1.00;;;;;;4939310;29;19926;-50
2023/09/27 09:40:27;;;;;;;;;;;21.20;1.00;;;;;;4935884;29;19927;-50
2023/09/27 09:42:57;;;;;;;;;;;21.20;1.00;;;;;;4936197;29;19927;-52
2023/09/27 09:45:26;;;;;;;;;;;21.20;1.00;;;;;;4936209;29;19927;-50
2023/09/27 09:47:53;;;;;;;;;;;21.20;1.00;;;;;;4936166;29;19927;-50
2023/09/27 09:50:20;;;;;;;;;;;21.20;1.00;;;;;;4935284;29;19965;-50
2023/09/27 09:52:59;;;;;;;;;;;21.20;1.00;;;;;;4935990;29;20389;-50
2023/09/27 09:55:29;;;;;;;;;;;21.20;1.00;;;;;;4936015;29;19982;-53
2023/09/27 09:58:29;;;;;;;;;;;21.30;1.00;;;;;;4935830;29;19966;-50
2023/09/27 10:00:56;;;;;;;;;;;21.20;1.00;;;;;;4935677;29;19927;-52
2023/09/27 10:03:30;;;;;;;;;;;21.20;1.00;;;;;;4935797;29;19969;-55
2023/09/27 10:05:58;;;;;;;;;;;21.20;1.00;;;;;;4935816;29;20009;-54
2023/09/27 10:08:27;;;;;;;;;;;21.20;1.00;;;;;;4935521;29;19942;-51
2023/09/27 10:10:54;;;;;;;;;;;21.30;1.00;;;;;;4935476;29;19962;-52
2023/09/27 10:13:21;;;;;;;;;;;21.20;1.00;;;;;;4935572;29;19934;-51
2023/09/27 10:15:48;;;;;;;;;;;21.20;1.00;;;;;;4935629;29;19927;-51
2023/09/27 10:18:21;;;;;;;;;;;21.20;1.00;;;;;;4935389;29;20324;-56
2023/09/27 10:21:01;;;;;;;;;;;21.30;1.00;;;;;;4935068;29;19927;-51
2023/09/27 10:23:46;;;;;;;;;;;21.30;1.00;;;;;;4937122;29;19997;-56
2023/09/27 10:26:25;;;;;;;;;;;21.30;1.00;;;;;;4935426;29;20385;-51
2023/09/27 10:29:04;;;;;;;;;;;21.30;1.00;;;;;;4935141;29;19937;-53
2023/09/27 10:31:32;;;;;;;;;;;21.30;1.00;;;;;;4935154;29;19931;-53
2023/09/27 10:33:59;;;;;;;;;;;21.40;1.00;;;;;;4935382;29;19927;-55
2023/09/27 10:36:26;;;;;;;;;;;21.40;1.00;;;;;;4935575;29;19933;-54
2023/09/27 10:38:53;;;;;;;;;;;21.40;1.00;;;;;;4918099;29;20021;-54
2023/09/27 10:41:32;;;;;;;;;;;21.40;1.00;;;;;;4935274;29;19926;-55
2023/09/27 10:44:00;;;;;;;;;;;21.40;1.00;;;;;;4935216;29;19927;-55
2023/09/27 10:46:26;;;;;;;;;;;21.40;1.00;;;;;;4935163;29;19926;-56
2023/09/27 10:48:54;;;;;;;;;;;21.40;1.00;;;;;;4934623;29;19962;-52
2023/09/27 10:51:22;;;;;;;;;;;21.40;1.00;;;;;;4935118;29;19970;-55
2023/09/27 10:53:50;;;;;;;;;;;21.40;1.00;;;;;;4935125;29;20388;-55
2023/09/27 10:56:17;;;;;;;;;;;21.40;1.00;;;;;;4934941;29;19944;-56
2023/09/27 10:58:50;;;;;;;;;;;21.50;1.00;;;;;;4934788;29;19973;-56
2023/09/27 11:01:21;;;;;;;;;;;21.50;1.00;;;;;;4934971;29;19933;-53
2023/09/27 11:03:48;;;;;;;;;;;21.50;1.00;;;;;;4934993;29;19927;-54
2023/09/27 11:06:15;;;;;;;;;;;21.50;1.00;;;;;;4934877;29;19926;-56
2023/09/27 11:08:43;;;;;;;;;;;21.50;1.00;;;;;;4934545;29;19934;-52
2023/09/27 11:11:13;;;;;;;;;;;21.50;1.00;;;;;;4934863;29;19982;-51
2023/09/27 11:13:41;;;;;;;;;;;21.50;1.00;;;;;;4935043;29;19958;-52
2023/09/27 11:16:08;;;;;;;;;;;21.50;1.00;;;;;;4934991;29;20393;-54
2023/09/27 11:18:36;;;;;;;;;;;21.50;1.00;;;;;;4934776;29;19962;-53
2023/09/27 11:21:09;;;;;;;;;;;21.50;1.00;;;;;;4934924;29;20304;-55
2023/09/27 11:23:53;;;;;;;;;;;21.50;1.00;;;;;;4934807;29;20476;-55
2023/09/27 11:26:21;;;;;;;;;;;21.50;1.00;;;;;;4934860;29;19927;-51
2023/09/27 11:28:56;;;;;;;;;;;21.50;1.00;;;;;;4934520;29;20118;-51
2023/09/27 11:31:24;;;;;;;;;;;21.50;1.00;;;;;;4934703;29;20003;-52
2023/09/27 11:33:51;;;;;;;;;;;21.50;1.00;;;;;;4934742;29;19927;-57
2023/09/27 11:36:18;;;;;;;;;;;21.60;1.00;;;;;;4934672;29;19927;-56
2023/09/27 11:38:52;;;;;;;;;;;21.60;1.00;;;;;;4934406;29;20409;-54
2023/09/27 11:41:19;;;;;;;;;;;21.60;1.00;;;;;;4934894;29;19946;-56
2023/09/27 11:43:46;;;;;;;;;;;21.60;1.00;;;;;;4935218;29;20397;-51
2023/09/27 11:46:24;;;;;;;;;;;21.60;1.00;;;;;;4938420;29;20440;-52
2023/09/27 11:48:51;;;;;;;;;;;21.60;1.00;;;;;;4937708;29;20431;-54
2023/09/27 11:51:18;;;;;;;;;;;21.60;1.00;;;;;;4938011;29;19954;-55
2023/09/27 11:53:45;;;;;;;;;;;21.60;1.00;;;;;;4938166;29;19930;-54
2023/09/27 11:56:12;;;;;;;;;;;21.60;1.00;;;;;;4938003;29;20414;-52
2023/09/27 11:58:39;;;;;;;;;;;21.60;1.00;;;;;;4937531;29;19934;-54
2023/09/27 12:01:08;;;;;;;;;;;21.60;1.00;;;;;;4938199;29;19931;-51
2023/09/27 12:03:35;;;;;;;;;;;21.60;1.00;;;;;;4938103;29;19934;-55
2023/09/27 12:06:02;;;;;;;;;;;21.60;1.00;;;;;;4937994;29;19931;-56
2023/09/27 12:08:30;;;;;;;;;;;21.60;1.00;;;;;;4940403;29;19952;-53
2023/09/27 12:10:59;;;;;;;;;;;21.60;1.00;;;;;;4948740;29;19926;-51
2023/09/27 12:13:26;;;;;;;;;;;21.60;1.00;;;;;;4956904;29;19930;-53
2023/09/27 12:15:52;;;;;;;;;;;21.60;1.00;;;;;;4956843;29;20357;-53
2023/09/27 12:18:20;;;;;;;;;;;21.60;1.00;;;;;;4956846;29;20455;-55
2023/09/27 12:20:47;;;;;;;;;;;21.60;1.00;;;;;;4956439;29;19926;-55
2023/09/27 12:23:17;;;;;;;;;;;21.60;1.00;;;;;;4956626;29;20029;-55
2023/09/27 12:25:44;;;;;;;;;;;21.60;1.00;;;;;;4956727;29;19930;-52
2023/09/27 12:28:11;;;;;;;;;;;21.60;1.00;;;;;;4956678;29;19989;-51
2023/09/27 12:30:38;;;;;;;;;;;21.60;1.00;;;;;;4937053;29;19934;-55
2023/09/27 12:33:04;;;;;;;;;;;21.60;1.00;;;;;;4937366;29;19974;-51
2023/09/27 12:35:32;;;;;;;;;;;21.60;1.00;;;;;;4937231;29;19927;-52
2023/09/27 12:38:04;;;;;;;;;;;21.70;1.00;;;;;;4937413;29;20014;-54
2023/09/27 12:40:32;;;;;;;;;;;21.70;1.00;;;;;;4937036;29;20199;-53
2023/09/27 12:42:59;;;;;;;;;;;21.70;1.00;;;;;;4937324;29;19927;-51
2023/09/27 12:45:26;;;;;;;;;;;21.70;1.00;;;;;;4937168;29;19934;-51
2023/09/27 12:47:53;;;;;;;;;;;21.70;1.00;;;;;;4937143;29;19927;-50
2023/09/27 12:50:26;;;;;;;;;;;21.70;1.00;;;;;;4936553;29;19926;-51
2023/09/27 12:52:54;;;;;;;;;;;21.70;1.00;;;;;;4937090;29;19927;-54
2023/09/27 12:55:20;;;;;;;;;;;21.70;1.00;;;;;;4936825;29;19933;-51
2023/09/27 12:57:49;;;;;;;;;;;21.70;1.00;;;;;;4937068;29;19961;-54
2023/09/27 13:00:17;;;;;;;;;;;21.70;1.00;;;;;;4936319;29;19927;-54
2023/09/27 13:02:43;;;;;;;;;;;21.70;1.00;;;;;;4937115;29;19982;-54
2023/09/27 13:05:10;;;;;;;;;;;21.70;1.00;;;;;;4936987;29;19933;-54
2023/09/27 13:07:38;;;;;;;;;;;21.70;1.00;;;;;;4936824;29;19933;-53
2023/09/27 13:10:05;;;;;;;;;;;21.70;1.00;;;;;;4936237;29;19927;-53
2023/09/27 13:12:31;;;;;;;;;;;21.70;1.00;;;;;;4941896;29;19926;-54
2023/09/27 13:14:58;;;;;;;;;;;21.70;1.00;;;;;;4955776;29;19926;-54
2023/09/27 13:17:25;;;;;;;;;;;21.70;1.00;;;;;;4955903;29;19950;-55
2023/09/27 13:19:52;;;;;;;;;;;21.70;1.00;;;;;;4955558;29;20021;-53
2023/09/27 13:22:22;;;;;;;;;;;21.70;1.00;;;;;;4955794;29;19933;-54
2023/09/27 13:24:49;;;;;;;;;;;21.70;1.00;;;;;;4919512;29;19927;-52
2023/09/27 13:27:15;;;;;;;;;;;21.70;1.00;;;;;;4936531;29;20014;-54
2023/09/27 13:29:43;;;;;;;;;;;21.70;1.00;;;;;;4936166;29;19978;-56
2023/09/27 13:32:09;;;;;;;;;;;21.70;1.00;;;;;;4936532;29;20021;-55
2023/09/27 13:34:36;;;;;;;;;;;21.70;1.00;;;;;;4936091;29;19970;-54
2023/09/27 13:37:03;;;;;;;;;;;21.70;1.00;;;;;;4919474;29;20018;-51
2023/09/27 13:39:30;;;;;;;;;;;21.70;1.00;;;;;;4935956;29;19942;-53
2023/09/27 13:41:57;;;;;;;;;;;21.80;1.00;;;;;;4936393;29;20448;-52
2023/09/27 13:44:23;;;;;;;;;;;21.80;1.00;;;;;;4936167;29;19958;-55
2023/09/27 13:46:51;;;;;;;;;;;21.80;1.00;;;;;;4923234;29;20021;-53
2023/09/27 13:49:18;;;;;;;;;;;21.80;1.00;;;;;;4946742;29;20427;-54
2023/09/27 13:51:45;;;;;;;;;;;21.80;1.00;;;;;;4938457;29;19927;-52
2023/09/27 13:54:12;;;;;;;;;;;21.80;1.00;;;;;;4942490;29;19926;-55
2023/09/27 13:56:40;;;;;;;;;;;21.80;1.00;;;;;;4935698;29;19927;-52
2023/09/27 13:59:06;;;;;;;;;;;21.80;1.00;;;;;;4937314;29;19927;-55
2023/09/27 14:01:34;;;;;;;;;;;21.80;1.00;;;;;;4953283;29;19934;-50
2023/09/27 14:04:01;;;;;;;;;;;21.80;1.00;;;;;;4954976;29;19927;-56
2023/09/27 14:06:28;;;;;;;;;;;21.80;1.00;;;;;;4943955;28;19957;-52
2023/09/27 14:08:55;;;;;;;;;;;21.80;1.00;;;;;;4935410;29;20390;-55
2023/09/27 14:11:22;;;;;;;;;;;21.80;1.00;;;;;;4935602;29;19937;-55
2023/09/27 14:13:49;;;;;;;;;;;21.80;1.00;;;;;;4935677;29;19926;-53
2023/09/27 14:16:16;;;;;;;;;;;21.80;1.00;;;;;;4935844;29;19927;-55
2023/09/27 14:18:44;;;;;;;;;;;21.80;1.00;;;;;;4935102;29;19982;-55
2023/09/27 14:21:12;;;;;;;;;;;21.90;1.00;;;;;;4937188;29;19927;-56
2023/09/27 14:23:41;;;;;;;;;;;21.80;1.00;;;;;;4945902;29;20507;-56
2023/09/27 14:26:09;;;;;;;;;;;21.90;1.00;;;;;;4938337;29;19935;-55
2023/09/27 14:28:36;;;;;;;;;;;21.80;1.00;;;;;;4947245;29;19937;-55
2023/09/27 14:31:03;;;;;;;;;;;21.80;1.00;;;;;;4935967;29;19989;-56
2023/09/27 14:33:30;;;;;;;;;;;21.80;1.00;;;;;;4943176;29;19933;-51
2023/09/27 14:35:59;;;;;;;;;;;21.80;1.00;;;;;;4935233;29;19926;-56